Terminal Aerodrome Forecast
Issued by NWS Tampa Bay Area, FL

Home | Current Version | Previous Version | Text Only | Print | Product List | Glossary On
Versions: 1 2 3 4 5 6 7 8 9 10 11 12 13 14 15
998
FTUS42 KTBW 230034 CCA
TAFSRQ
TAF COR
KSRQ 230034Z 2300/2324 20020G30KT P6SM SHRA VCTS SCT015CB BKN030
      TEMPO 2300/2303 3SM TSRA SCT015CB OVC020
     FM230900 27024G33KT P6SM VCSH SCT015 BKN030
     FM231200 29021G29KT P6SM SCT020 BKN040
     FM232100 30017G24KT P6SM SCT030 BKN060=

USA.gov is the U.S. government's official web portal to all federal, state and local government web resources and services.